sensor_id;sensor_type;location;lat;lon;timestamp;temperature;humidity
35395;DHT22;21500;45.308;9.488;2023-04-19T00:00:46;14.20;99.90
35395;DHT22;21500;45.308;9.488;2023-04-19T00:03:11;14.20;99.90
35395;DHT22;21500;45.308;9.488;2023-04-19T00:05:39;14.20;99.90
35395;DHT22;21500;45.308;9.488;2023-04-19T00:08:06;14.10;99.90
35395;DHT22;21500;45.308;9.488;2023-04-19T00:10:32;14.10;99.90
35395;DHT22;21500;45.308;9.488;2023-04-19T00:12:58;14.10;99.90
35395;DHT22;21500;45.308;9.488;2023-04-19T00:15:24;14.00;99.90
35395;DHT22;21500;45.308;9.488;2023-04-19T00:17:50;13.90;99.90
35395;DHT22;21500;45.308;9.488;2023-04-19T00:20:16;13.90;99.90
35395;DHT22;21500;45.308;9.488;2023-04-19T00:22:41;13.90;99.90
35395;DHT22;21500;45.308;9.488;2023-04-19T00:25:07;13.80;99.90
35395;DHT22;21500;45.308;9.488;2023-04-19T00:27:33;13.90;99.90
35395;DHT22;21500;45.308;9.488;2023-04-19T00:30:02;13.80;99.90
35395;DHT22;21500;45.308;9.488;2023-04-19T00:32:29;13.80;99.90
35395;DHT22;21500;45.308;9.488;2023-04-19T00:34:56;13.70;99.90
35395;DHT22;21500;45.308;9.488;2023-04-19T06:55:43;16.00;99.90
35395;DHT22;21500;45.308;9.488;2023-04-19T06:59:14;16.20;99.90
35395;DHT22;21500;45.308;9.488;2023-04-19T07:01:56;16.30;99.90
35395;DHT22;21500;45.308;9.488;2023-04-19T07:04:31;16.40;99.90
35395;DHT22;21500;45.308;9.488;2023-04-19T07:11:34;16.40;99.90
35395;DHT22;21500;45.308;9.488;2023-04-19T07:14:05;16.40;99.90
35395;DHT22;21500;45.308;9.488;2023-04-19T07:16:38;16.30;99.90
35395;DHT22;21500;45.308;9.488;2023-04-19T07:19:26;16.50;99.90
35395;DHT22;21500;45.308;9.488;2023-04-19T07:21:58;16.70;99.90
35395;DHT22;21500;45.308;9.488;2023-04-19T07:24:36;16.90;99.90
35395;DHT22;21500;45.308;9.488;2023-04-19T07:31:04;17.20;99.90
35395;DHT22;21500;45.308;9.488;2023-04-19T07:33:30;17.40;99.90
35395;DHT22;21500;45.308;9.488;2023-04-19T07:35:56;17.50;99.90
35395;DHT22;21500;45.308;9.488;2023-04-19T07:38:21;17.60;99.90
35395;DHT22;21500;45.308;9.488;2023-04-19T07:40:48;17.60;99.90
35395;DHT22;21500;45.308;9.488;2023-04-19T07:43:15;17.90;99.90
35395;DHT22;21500;45.308;9.488;2023-04-19T07:45:41;17.30;99.90
35395;DHT22;21500;45.308;9.488;2023-04-19T07:48:07;17.70;99.90
35395;DHT22;21500;45.308;9.488;2023-04-19T07:50:33;18.10;99.90
35395;DHT22;21500;45.308;9.488;2023-04-19T07:53:00;18.20;99.90
35395;DHT22;21500;45.308;9.488;2023-04-19T07:55:26;18.20;99.90
35395;DHT22;21500;45.308;9.488;2023-04-19T07:57:53;18.20;99.90
35395;DHT22;21500;45.308;9.488;2023-04-19T08:00:19;17.30;99.90
35395;DHT22;21500;45.308;9.488;2023-04-19T08:02:51;17.60;99.90
35395;DHT22;21500;45.308;9.488;2023-04-19T08:05:17;18.10;99.90
35395;DHT22;21500;45.308;9.488;2023-04-19T08:07:45;18.50;99.90
35395;DHT22;21500;45.308;9.488;2023-04-19T08:10:12;18.70;99.90
35395;DHT22;21500;45.308;9.488;2023-04-19T08:12:40;18.90;99.90
35395;DHT22;21500;45.308;9.488;2023-04-19T08:15:07;18.90;99.90
35395;DHT22;21500;45.308;9.488;2023-04-19T08:17:36;19.00;99.90
35395;DHT22;21500;45.308;9.488;2023-04-19T08:20:05;19.10;99.90
35395;DHT22;21500;45.308;9.488;2023-04-19T08:22:32;19.00;99.90
35395;DHT22;21500;45.308;9.488;2023-04-19T08:24:58;19.30;99.90
35395;DHT22;21500;45.308;9.488;2023-04-19T08:27:25;19.50;99.90
35395;DHT22;21500;45.308;9.488;2023-04-19T08:29:51;19.60;99.90
35395;DHT22;21500;45.308;9.488;2023-04-19T08:32:18;19.60;99.90
35395;DHT22;21500;45.308;9.488;2023-04-19T08:34:44;19.90;99.90
35395;DHT22;21500;45.308;9.488;2023-04-19T08:37:10;20.10;99.90
35395;DHT22;21500;45.308;9.488;2023-04-19T08:39:37;20.10;99.90
35395;DHT22;21500;45.308;9.488;2023-04-19T08:42:04;20.10;99.90
35395;DHT22;21500;45.308;9.488;2023-04-19T08:44:40;20.10;99.90
35395;DHT22;21500;45.308;9.488;2023-04-19T08:47:07;20.20;99.90
35395;DHT22;21500;45.308;9.488;2023-04-19T08:49:34;20.20;99.90
35395;DHT22;21500;45.308;9.488;2023-04-19T08:52:05;20.10;99.90
35395;DHT22;21500;45.308;9.488;2023-04-19T08:54:40;20.30;99.90
35395;DHT22;21500;45.308;9.488;2023-04-19T08:57:08;20.40;99.90
35395;DHT22;21500;45.308;9.488;2023-04-19T08:59:38;20.00;99.90
35395;DHT22;21500;45.308;9.488;2023-04-19T09:02:19;19.90;99.90
35395;DHT22;21500;45.308;9.488;2023-04-19T09:04:58;20.30;99.90
35395;DHT22;21500;45.308;9.488;2023-04-19T09:07:27;20.50;99.90
35395;DHT22;21500;45.308;9.488;2023-04-19T09:10:11;20.50;99.90
35395;DHT22;21500;45.308;9.488;2023-04-19T09:13:03;20.30;99.90
35395;DHT22;21500;45.308;9.488;2023-04-19T09:16:05;20.20;99.90
35395;DHT22;21500;45.308;9.488;2023-04-19T09:18:59;20.10;99.70
35395;DHT22;21500;45.308;9.488;2023-04-19T09:21:41;19.90;99.90
35395;DHT22;21500;45.308;9.488;2023-04-19T09:24:09;19.90;99.90
35395;DHT22;21500;45.308;9.488;2023-04-19T09:30:27;19.80;99.90
35395;DHT22;21500;45.308;9.488;2023-04-19T09:33:44;20.10;99.90
35395;DHT22;21500;45.308;9.488;2023-04-19T09:36:31;20.00;99.90
35395;DHT22;21500;45.308;9.488;2023-04-19T09:39:08;20.10;99.90
35395;DHT22;21500;45.308;9.488;2023-04-19T09:41:53;20.60;99.90
35395;DHT22;21500;45.308;9.488;2023-04-19T09:44:25;20.80;99.90
35395;DHT22;21500;45.308;9.488;2023-04-19T09:49:35;20.90;97.80
35395;DHT22;21500;45.308;9.488;2023-04-19T09:52:02;20.90;98.30
35395;DHT22;21500;45.308;9.488;2023-04-19T09:54:30;20.90;97.80
35395;DHT22;21500;45.308;9.488;2023-04-19T09:57:00;20.60;98.30
35395;DHT22;21500;45.308;9.488;2023-04-19T09:59:27;20.90;98.30
35395;DHT22;21500;45.308;9.488;2023-04-19T10:01:55;21.00;98.40
35395;DHT22;21500;45.308;9.488;2023-04-19T10:04:22;21.00;97.90
35395;DHT22;21500;45.308;9.488;2023-04-19T10:06:51;20.90;98.60
35395;DHT22;21500;45.308;9.488;2023-04-19T10:12:56;21.30;98.60
35395;DHT22;21500;45.308;9.488;2023-04-19T10:15:47;21.50;98.00
35395;DHT22;21500;45.308;9.488;2023-04-19T10:18:39;21.00;97.80
35395;DHT22;21500;45.308;9.488;2023-04-19T10:22:35;20.80;98.00
35395;DHT22;21500;45.308;9.488;2023-04-19T10:25:12;21.20;97.10
35395;DHT22;21500;45.308;9.488;2023-04-19T10:28:34;21.40;96.70
35395;DHT22;21500;45.308;9.488;2023-04-19T10:31:24;21.30;96.80
35395;DHT22;21500;45.308;9.488;2023-04-19T10:34:00;21.50;97.70
35395;DHT22;21500;45.308;9.488;2023-04-19T10:37:32;21.80;97.00
35395;DHT22;21500;45.308;9.488;2023-04-19T10:43:45;21.30;96.90
35395;DHT22;21500;45.308;9.488;2023-04-19T10:46:52;21.60;96.90
35395;DHT22;21500;45.308;9.488;2023-04-19T10:49:27;20.60;96.30
35395;DHT22;21500;45.308;9.488;2023-04-19T10:51:54;21.20;96.80
35395;DHT22;21500;45.308;9.488;2023-04-19T10:58:04;21.30;95.60
35395;DHT22;21500;45.308;9.488;2023-04-19T11:00:49;20.90;95.80
35395;DHT22;21500;45.308;9.488;2023-04-19T11:11:47;20.80;95.10
35395;DHT22;21500;45.308;9.488;2023-04-19T11:14:17;20.90;94.70
35395;DHT22;21500;45.308;9.488;2023-04-19T11:16:45;21.50;95.30
35395;DHT22;21500;45.308;9.488;2023-04-19T11:19:18;21.80;94.50
35395;DHT22;21500;45.308;9.488;2023-04-19T11:21:47;21.50;93.20
35395;DHT22;21500;45.308;9.488;2023-04-19T11:24:14;21.50;92.60
35395;DHT22;21500;45.308;9.488;2023-04-19T11:26:43;21.70;92.70
35395;DHT22;21500;45.308;9.488;2023-04-19T11:29:11;21.80;93.20
35395;DHT22;21500;45.308;9.488;2023-04-19T11:31:51;21.40;93.70
35395;DHT22;21500;45.308;9.488;2023-04-19T11:34:23;21.60;93.50
35395;DHT22;21500;45.308;9.488;2023-04-19T11:36:55;22.00;93.90
35395;DHT22;21500;45.308;9.488;2023-04-19T11:39:25;22.00;93.40
35395;DHT22;21500;45.308;9.488;2023-04-19T11:41:53;22.20;93.90
35395;DHT22;21500;45.308;9.488;2023-04-19T11:44:19;22.50;93.10
35395;DHT22;21500;45.308;9.488;2023-04-19T11:47:02;22.10;92.20
35395;DHT22;21500;45.308;9.488;2023-04-19T11:49:33;21.70;93.10
35395;DHT22;21500;45.308;9.488;2023-04-19T11:52:00;22.10;93.20
35395;DHT22;21500;45.308;9.488;2023-04-19T11:54:27;22.30;92.60
35395;DHT22;21500;45.308;9.488;2023-04-19T11:56:57;21.80;92.90
35395;DHT22;21500;45.308;9.488;2023-04-19T11:59:23;22.00;93.20
35395;DHT22;21500;45.308;9.488;2023-04-19T12:01:49;22.20;92.70
35395;DHT22;21500;45.308;9.488;2023-04-19T12:04:19;21.40;93.00
35395;DHT22;21500;45.308;9.488;2023-04-19T12:07:03;21.50;92.90
35395;DHT22;21500;45.308;9.488;2023-04-19T12:09:31;21.90;93.30
35395;DHT22;21500;45.308;9.488;2023-04-19T12:11:57;22.40;93.10
35395;DHT22;21500;45.308;9.488;2023-04-19T12:14:23;22.50;92.50
35395;DHT22;21500;45.308;9.488;2023-04-19T12:17:10;22.50;92.50
35395;DHT22;21500;45.308;9.488;2023-04-19T12:19:42;22.50;92.30
35395;DHT22;21500;45.308;9.488;2023-04-19T12:22:13;22.60;92.00
35395;DHT22;21500;45.308;9.488;2023-04-19T12:24:39;22.30;91.30
35395;DHT22;21500;45.308;9.488;2023-04-19T12:27:06;21.90;91.10
35395;DHT22;21500;45.308;9.488;2023-04-19T12:29:32;22.00;90.90
35395;DHT22;21500;45.308;9.488;2023-04-19T12:31:59;21.70;91.10
35395;DHT22;21500;45.308;9.488;2023-04-19T12:34:25;22.00;91.10
35395;DHT22;21500;45.308;9.488;2023-04-19T12:36:52;22.10;90.40
35395;DHT22;21500;45.308;9.488;2023-04-19T12:39:19;22.30;90.80
35395;DHT22;21500;45.308;9.488;2023-04-19T12:41:44;22.40;90.60
35395;DHT22;21500;45.308;9.488;2023-04-19T12:44:16;22.10;90.80
35395;DHT22;21500;45.308;9.488;2023-04-19T12:46:43;21.60;91.50
35395;DHT22;21500;45.308;9.488;2023-04-19T12:49:33;22.00;90.70
35395;DHT22;21500;45.308;9.488;2023-04-19T12:52:05;22.00;90.80
35395;DHT22;21500;45.308;9.488;2023-04-19T12:54:32;21.70;90.90
35395;DHT22;21500;45.308;9.488;2023-04-19T12:57:01;22.20;91.00
35395;DHT22;21500;45.308;9.488;2023-04-19T12:59:27;22.40;90.70
35395;DHT22;21500;45.308;9.488;2023-04-19T13:01:57;21.90;90.80
35395;DHT22;21500;45.308;9.488;2023-04-19T13:04:30;22.30;90.60
35395;DHT22;21500;45.308;9.488;2023-04-19T13:06:58;22.30;90.40
35395;DHT22;21500;45.308;9.488;2023-04-19T13:09:28;22.30;90.60
35395;DHT22;21500;45.308;9.488;2023-04-19T13:12:06;22.00;91.20
35395;DHT22;21500;45.308;9.488;2023-04-19T13:14:38;22.50;90.60
35395;DHT22;21500;45.308;9.488;2023-04-19T13:17:09;22.50;88.80
35395;DHT22;21500;45.308;9.488;2023-04-19T13:19:41;22.30;89.20
35395;DHT22;21500;45.308;9.488;2023-04-19T13:22:11;22.30;90.10
35395;DHT22;21500;45.308;9.488;2023-04-19T13:24:40;23.10;89.20
35395;DHT22;21500;45.308;9.488;2023-04-19T13:27:07;23.10;89.50
35395;DHT22;21500;45.308;9.488;2023-04-19T13:29:35;22.90;87.20
35395;DHT22;21500;45.308;9.488;2023-04-19T13:32:04;22.90;86.60
35395;DHT22;21500;45.308;9.488;2023-04-19T13:34:32;22.50;86.10
35395;DHT22;21500;45.308;9.488;2023-04-19T13:36:59;22.60;86.00
35395;DHT22;21500;45.308;9.488;2023-04-19T13:39:29;22.80;85.70
35395;DHT22;21500;45.308;9.488;2023-04-19T13:41:58;22.80;85.70
35395;DHT22;21500;45.308;9.488;2023-04-19T13:44:24;22.80;86.10
35395;DHT22;21500;45.308;9.488;2023-04-19T13:46:50;22.70;84.60
35395;DHT22;21500;45.308;9.488;2023-04-19T13:49:18;22.60;84.60
35395;DHT22;21500;45.308;9.488;2023-04-19T13:51:44;23.30;85.10
35395;DHT22;21500;45.308;9.488;2023-04-19T13:54:11;23.60;84.60
35395;DHT22;21500;45.308;9.488;2023-04-19T13:56:40;23.60;83.80
35395;DHT22;21500;45.308;9.488;2023-04-19T13:59:06;23.20;85.00
35395;DHT22;21500;45.308;9.488;2023-04-19T14:01:34;22.90;85.10
35395;DHT22;21500;45.308;9.488;2023-04-19T14:04:01;23.00;84.90
35395;DHT22;21500;45.308;9.488;2023-04-19T14:06:27;22.40;84.10
35395;DHT22;21500;45.308;9.488;2023-04-19T14:08:53;22.60;84.40
35395;DHT22;21500;45.308;9.488;2023-04-19T14:11:24;23.10;84.10
35395;DHT22;21500;45.308;9.488;2023-04-19T14:13:52;22.50;83.90
35395;DHT22;21500;45.308;9.488;2023-04-19T14:16:28;23.20;84.60
35395;DHT22;21500;45.308;9.488;2023-04-19T14:18:54;23.50;84.10
35395;DHT22;21500;45.308;9.488;2023-04-19T14:21:20;23.80;83.90
35395;DHT22;21500;45.308;9.488;2023-04-19T14:23:46;23.60;82.60
35395;DHT22;21500;45.308;9.488;2023-04-19T14:26:17;23.50;83.20
35395;DHT22;21500;45.308;9.488;2023-04-19T14:28:46;23.40;81.60
35395;DHT22;21500;45.308;9.488;2023-04-19T14:31:14;22.70;80.50
35395;DHT22;21500;45.308;9.488;2023-04-19T14:33:41;22.70;81.40
35395;DHT22;21500;45.308;9.488;2023-04-19T14:36:26;22.80;81.70
35395;DHT22;21500;45.308;9.488;2023-04-19T14:38:54;23.10;79.80
35395;DHT22;21500;45.308;9.488;2023-04-19T14:41:24;23.20;80.20
35395;DHT22;21500;45.308;9.488;2023-04-19T14:43:54;23.40;80.10
35395;DHT22;21500;45.308;9.488;2023-04-19T14:46:21;23.30;80.80
35395;DHT22;21500;45.308;9.488;2023-04-19T14:48:49;22.90;80.00
35395;DHT22;21500;45.308;9.488;2023-04-19T14:51:16;23.00;80.90
35395;DHT22;21500;45.308;9.488;2023-04-19T14:53:44;23.20;79.70
35395;DHT22;21500;45.308;9.488;2023-04-19T14:56:11;23.00;80.00
35395;DHT22;21500;45.308;9.488;2023-04-19T14:58:38;23.30;80.80
35395;DHT22;21500;45.308;9.488;2023-04-19T15:01:12;24.10;78.40
35395;DHT22;21500;45.308;9.488;2023-04-19T15:03:39;24.20;77.00
35395;DHT22;21500;45.308;9.488;2023-04-19T15:06:09;24.10;77.40
35395;DHT22;21500;45.308;9.488;2023-04-19T15:08:35;23.80;76.70
35395;DHT22;21500;45.308;9.488;2023-04-19T15:11:01;23.90;76.50
35395;DHT22;21500;45.308;9.488;2023-04-19T15:13:27;23.70;76.60
35395;DHT22;21500;45.308;9.488;2023-04-19T15:15:54;23.60;77.10
35395;DHT22;21500;45.308;9.488;2023-04-19T15:18:21;23.90;77.10
35395;DHT22;21500;45.308;9.488;2023-04-19T15:20:47;24.20;77.00
35395;DHT22;21500;45.308;9.488;2023-04-19T15:23:15;23.90;77.20
35395;DHT22;21500;45.308;9.488;2023-04-19T15:25:41;23.30;77.40
35395;DHT22;21500;45.308;9.488;2023-04-19T15:28:09;23.30;78.00
35395;DHT22;21500;45.308;9.488;2023-04-19T15:30:35;23.50;78.20
35395;DHT22;21500;45.308;9.488;2023-04-19T15:33:01;24.00;77.60
35395;DHT22;21500;45.308;9.488;2023-04-19T15:35:28;23.90;76.50
35395;DHT22;21500;45.308;9.488;2023-04-19T15:37:54;24.10;77.70
35395;DHT22;21500;45.308;9.488;2023-04-19T15:40:20;24.00;76.20
35395;DHT22;21500;45.308;9.488;2023-04-19T15:42:47;23.90;76.40
35395;DHT22;21500;45.308;9.488;2023-04-19T15:45:14;23.70;75.40
35395;DHT22;21500;45.308;9.488;2023-04-19T15:47:40;23.50;76.30
35395;DHT22;21500;45.308;9.488;2023-04-19T15:50:08;23.40;76.10
35395;DHT22;21500;45.308;9.488;2023-04-19T15:52:34;23.90;76.00
35395;DHT22;21500;45.308;9.488;2023-04-19T15:55:00;23.90;76.00
35395;DHT22;21500;45.308;9.488;2023-04-19T15:57:26;23.40;75.90
35395;DHT22;21500;45.308;9.488;2023-04-19T16:00:11;23.30;76.10
35395;DHT22;21500;45.308;9.488;2023-04-19T16:02:59;23.80;75.50
35395;DHT22;21500;45.308;9.488;2023-04-19T16:05:26;23.50;75.10
35395;DHT22;21500;45.308;9.488;2023-04-19T16:08:05;23.60;75.30
35395;DHT22;21500;45.308;9.488;2023-04-19T16:10:32;23.70;75.10
35395;DHT22;21500;45.308;9.488;2023-04-19T16:12:58;24.10;75.40
35395;DHT22;21500;45.308;9.488;2023-04-19T16:15:24;24.40;75.10
35395;DHT22;21500;45.308;9.488;2023-04-19T16:17:51;24.40;75.10
35395;DHT22;21500;45.308;9.488;2023-04-19T16:20:17;24.40;75.10
35395;DHT22;21500;45.308;9.488;2023-04-19T16:23:13;24.00;75.00
35395;DHT22;21500;45.308;9.488;2023-04-19T16:25:39;24.00;75.20
35395;DHT22;21500;45.308;9.488;2023-04-19T16:28:08;23.80;74.90
35395;DHT22;21500;45.308;9.488;2023-04-19T16:30:37;23.70;75.00
35395;DHT22;21500;45.308;9.488;2023-04-19T16:33:04;23.70;75.00
35395;DHT22;21500;45.308;9.488;2023-04-19T16:35:35;23.50;74.70
35395;DHT22;21500;45.308;9.488;2023-04-19T16:38:06;23.30;74.30
35395;DHT22;21500;45.308;9.488;2023-04-19T16:40:32;23.20;74.50
35395;DHT22;21500;45.308;9.488;2023-04-19T16:42:58;23.20;74.50
35395;DHT22;21500;45.308;9.488;2023-04-19T16:45:25;23.20;74.10
35395;DHT22;21500;45.308;9.488;2023-04-19T16:47:54;23.20;74.30
35395;DHT22;21500;45.308;9.488;2023-04-19T16:50:27;23.10;75.00
35395;DHT22;21500;45.308;9.488;2023-04-19T16:52:54;23.10;74.80
35395;DHT22;21500;45.308;9.488;2023-04-19T16:55:20;23.10;75.20
35395;DHT22;21500;45.308;9.488;2023-04-19T16:58:13;23.00;75.30
35395;DHT22;21500;45.308;9.488;2023-04-19T17:00:39;23.00;75.20
35395;DHT22;21500;45.308;9.488;2023-04-19T17:03:07;23.00;75.30
35395;DHT22;21500;45.308;9.488;2023-04-19T17:05:37;22.90;75.00
35395;DHT22;21500;45.308;9.488;2023-04-19T17:08:05;22.80;74.90
35395;DHT22;21500;45.308;9.488;2023-04-19T17:10:31;22.70;75.10
35395;DHT22;21500;45.308;9.488;2023-04-19T17:12:59;22.70;75.30
35395;DHT22;21500;45.308;9.488;2023-04-19T17:15:26;22.50;77.80
35395;DHT22;21500;45.308;9.488;2023-04-19T17:17:53;22.40;80.60
35395;DHT22;21500;45.308;9.488;2023-04-19T17:20:19;22.20;83.50
35395;DHT22;21500;45.308;9.488;2023-04-19T17:22:45;22.00;85.90
35395;DHT22;21500;45.308;9.488;2023-04-19T17:25:14;21.80;86.90
35395;DHT22;21500;45.308;9.488;2023-04-19T17:27:43;21.70;87.40
35395;DHT22;21500;45.308;9.488;2023-04-19T17:30:10;21.60;87.20
35395;DHT22;21500;45.308;9.488;2023-04-19T17:32:37;21.50;87.60
35395;DHT22;21500;45.308;9.488;2023-04-19T17:35:05;21.50;88.00
35395;DHT22;21500;45.308;9.488;2023-04-19T17:37:37;21.40;88.60
35395;DHT22;21500;45.308;9.488;2023-04-19T17:40:48;21.40;89.30
35395;DHT22;21500;45.308;9.488;2023-04-19T17:43:25;21.10;89.80
35395;DHT22;21500;45.308;9.488;2023-04-19T17:50:03;20.90;90.20
35395;DHT22;21500;45.308;9.488;2023-04-19T17:52:30;20.90;90.80
35395;DHT22;21500;45.308;9.488;2023-04-19T17:54:57;20.80;91.10
35395;DHT22;21500;45.308;9.488;2023-04-19T17:57:23;20.70;91.60
35395;DHT22;21500;45.308;9.488;2023-04-19T17:59:49;20.60;91.90
35395;DHT22;21500;45.308;9.488;2023-04-19T18:02:15;20.50;92.30
35395;DHT22;21500;45.308;9.488;2023-04-19T18:04:41;20.50;92.60
35395;DHT22;21500;45.308;9.488;2023-04-19T18:07:10;20.40;93.00
35395;DHT22;21500;45.308;9.488;2023-04-19T18:09:40;20.40;93.20
35395;DHT22;21500;45.308;9.488;2023-04-19T18:13:10;20.30;93.40
35395;DHT22;21500;45.308;9.488;2023-04-19T18:16:21;20.20;93.50
35395;DHT22;21500;45.308;9.488;2023-04-19T18:21:45;20.00;94.00
35395;DHT22;21500;45.308;9.488;2023-04-19T18:24:12;19.60;94.40
35395;DHT22;21500;45.308;9.488;2023-04-19T18:26:43;19.50;94.80
35395;DHT22;21500;45.308;9.488;2023-04-19T18:29:21;19.20;95.10
35395;DHT22;21500;45.308;9.488;2023-04-19T18:34:38;18.90;95.60
35395;DHT22;21500;45.308;9.488;2023-04-19T18:37:15;18.90;95.90
35395;DHT22;21500;45.308;9.488;2023-04-19T18:39:44;18.70;95.80
35395;DHT22;21500;45.308;9.488;2023-04-19T18:42:17;18.70;95.90
35395;DHT22;21500;45.308;9.488;2023-04-19T19:04:41;18.10;97.40
35395;DHT22;21500;45.308;9.488;2023-04-19T19:07:51;18.00;97.70
35395;DHT22;21500;45.308;9.488;2023-04-19T19:21:47;17.80;98.60
35395;DHT22;21500;45.308;9.488;2023-04-19T19:24:34;17.70;99.40
35395;DHT22;21500;45.308;9.488;2023-04-19T19:27:05;17.60;99.90
35395;DHT22;21500;45.308;9.488;2023-04-19T19:37:50;17.40;99.90
35395;DHT22;21500;45.308;9.488;2023-04-19T19:40:15;17.30;99.90
35395;DHT22;21500;45.308;9.488;2023-04-19T19:42:41;17.20;99.90
35395;DHT22;21500;45.308;9.488;2023-04-19T19:45:07;17.10;99.90
35395;DHT22;21500;45.308;9.488;2023-04-19T19:47:33;17.00;99.90
35395;DHT22;21500;45.308;9.488;2023-04-19T19:50:02;16.90;99.90
35395;DHT22;21500;45.308;9.488;2023-04-19T19:52:28;16.90;99.90
35395;DHT22;21500;45.308;9.488;2023-04-19T19:54:55;16.80;99.90
35395;DHT22;21500;45.308;9.488;2023-04-19T19:57:21;16.80;99.90
35395;DHT22;21500;45.308;9.488;2023-04-19T19:59:46;16.80;99.90
35395;DHT22;21500;45.308;9.488;2023-04-19T20:02:12;16.80;99.90
35395;DHT22;21500;45.308;9.488;2023-04-19T20:04:38;16.80;99.90
35395;DHT22;21500;45.308;9.488;2023-04-19T20:07:04;16.70;99.90
35395;DHT22;21500;45.308;9.488;2023-04-19T20:09:30;16.60;99.90
35395;DHT22;21500;45.308;9.488;2023-04-19T20:11:57;16.70;99.90
35395;DHT22;21500;45.308;9.488;2023-04-19T20:14:23;16.70;99.90
35395;DHT22;21500;45.308;9.488;2023-04-19T20:16:50;16.60;99.90
35395;DHT22;21500;45.308;9.488;2023-04-19T20:19:16;16.60;99.90
35395;DHT22;21500;45.308;9.488;2023-04-19T20:21:42;16.60;99.90
35395;DHT22;21500;45.308;9.488;2023-04-19T20:24:08;16.60;99.90
35395;DHT22;21500;45.308;9.488;2023-04-19T20:26:34;16.50;99.90
35395;DHT22;21500;45.308;9.488;2023-04-19T20:29:00;16.50;99.90
35395;DHT22;21500;45.308;9.488;2023-04-19T20:31:28;16.40;99.90
35395;DHT22;21500;45.308;9.488;2023-04-19T20:33:53;16.30;99.90
35395;DHT22;21500;45.308;9.488;2023-04-19T20:36:20;16.30;99.90
35395;DHT22;21500;45.308;9.488;2023-04-19T20:38:48;16.10;99.90
35395;DHT22;21500;45.308;9.488;2023-04-19T20:41:15;16.10;99.90
35395;DHT22;21500;45.308;9.488;2023-04-19T20:43:41;16.00;99.90
35395;DHT22;21500;45.308;9.488;2023-04-19T20:46:07;16.00;99.90
35395;DHT22;21500;45.308;9.488;2023-04-19T20:48:33;15.90;99.90
35395;DHT22;21500;45.308;9.488;2023-04-19T20:50:58;15.90;99.90
35395;DHT22;21500;45.308;9.488;2023-04-19T20:53:24;15.90;99.90
35395;DHT22;21500;45.308;9.488;2023-04-19T20:55:50;15.90;99.90
35395;DHT22;21500;45.308;9.488;2023-04-19T20:58:16;15.80;99.90
35395;DHT22;21500;45.308;9.488;2023-04-19T21:00:42;15.80;99.90
35395;DHT22;21500;45.308;9.488;2023-04-19T21:03:08;15.80;99.90
35395;DHT22;21500;45.308;9.488;2023-04-19T21:05:34;15.60;99.90
35395;DHT22;21500;45.308;9.488;2023-04-19T21:08:00;15.70;99.90
35395;DHT22;21500;45.308;9.488;2023-04-19T21:10:26;15.70;99.90
35395;DHT22;21500;45.308;9.488;2023-04-19T21:12:52;15.70;99.90
35395;DHT22;21500;45.308;9.488;2023-04-19T21:15:18;15.70;99.90
35395;DHT22;21500;45.308;9.488;2023-04-19T21:17:44;15.70;99.90
35395;DHT22;21500;45.308;9.488;2023-04-19T21:20:10;15.60;99.90
35395;DHT22;21500;45.308;9.488;2023-04-19T21:22:42;15.70;99.90
35395;DHT22;21500;45.308;9.488;2023-04-19T21:25:09;15.70;99.90
35395;DHT22;21500;45.308;9.488;2023-04-19T21:27:35;15.70;99.90
35395;DHT22;21500;45.308;9.488;2023-04-19T21:30:02;15.70;99.90
35395;DHT22;21500;45.308;9.488;2023-04-19T21:32:28;15.70;99.90
35395;DHT22;21500;45.308;9.488;2023-04-19T21:34:54;15.70;99.90
35395;DHT22;21500;45.308;9.488;2023-04-19T21:37:21;15.70;99.90
35395;DHT22;21500;45.308;9.488;2023-04-19T21:39:49;15.70;99.90
35395;DHT22;21500;45.308;9.488;2023-04-19T21:42:16;15.70;99.90
35395;DHT22;21500;45.308;9.488;2023-04-19T21:44:41;15.70;99.90
35395;DHT22;21500;45.308;9.488;2023-04-19T21:47:08;15.80;99.90
35395;DHT22;21500;45.308;9.488;2023-04-19T21:49:34;15.80;99.90
35395;DHT22;21500;45.308;9.488;2023-04-19T21:51:59;15.90;99.90
35395;DHT22;21500;45.308;9.488;2023-04-19T21:54:25;15.80;99.90
35395;DHT22;21500;45.308;9.488;2023-04-19T21:56:51;15.70;99.90
35395;DHT22;21500;45.308;9.488;2023-04-19T21:59:17;15.80;99.90
35395;DHT22;21500;45.308;9.488;2023-04-19T22:01:42;15.80;99.90
35395;DHT22;21500;45.308;9.488;2023-04-19T22:04:08;15.60;99.90
35395;DHT22;21500;45.308;9.488;2023-04-19T22:06:36;15.60;99.90
35395;DHT22;21500;45.308;9.488;2023-04-19T22:09:04;15.70;99.90
35395;DHT22;21500;45.308;9.488;2023-04-19T22:11:30;15.60;99.90
35395;DHT22;21500;45.308;9.488;2023-04-19T22:13:59;15.70;99.90
35395;DHT22;21500;45.308;9.488;2023-04-19T22:16:28;15.50;99.90
35395;DHT22;21500;45.308;9.488;2023-04-19T22:18:57;15.20;99.90
35395;DHT22;21500;45.308;9.488;2023-04-19T22:21:24;15.20;99.90
35395;DHT22;21500;45.308;9.488;2023-04-19T22:23:54;15.30;99.90
35395;DHT22;21500;45.308;9.488;2023-04-19T22:26:20;15.20;99.90
35395;DHT22;21500;45.308;9.488;2023-04-19T22:28:46;15.20;99.90
35395;DHT22;21500;45.308;9.488;2023-04-19T22:31:12;15.10;99.90
35395;DHT22;21500;45.308;9.488;2023-04-19T22:33:37;15.10;99.90
35395;DHT22;21500;45.308;9.488;2023-04-19T22:36:04;15.00;99.90
35395;DHT22;21500;45.308;9.488;2023-04-19T22:38:31;14.90;99.90
35395;DHT22;21500;45.308;9.488;2023-04-19T22:40:56;14.80;99.90
35395;DHT22;21500;45.308;9.488;2023-04-19T22:43:22;14.80;99.90
35395;DHT22;21500;45.308;9.488;2023-04-19T22:45:49;14.90;99.90
35395;DHT22;21500;45.308;9.488;2023-04-19T22:48:15;14.90;99.90
35395;DHT22;21500;45.308;9.488;2023-04-19T22:50:42;14.90;99.90
35395;DHT22;21500;45.308;9.488;2023-04-19T22:53:12;14.80;99.90
35395;DHT22;21500;45.308;9.488;2023-04-19T22:55:38;14.90;99.90
35395;DHT22;21500;45.308;9.488;2023-04-19T22:58:05;14.90;99.90
35395;DHT22;21500;45.308;9.488;2023-04-19T23:00:31;14.90;99.90
35395;DHT22;21500;45.308;9.488;2023-04-19T23:02:57;14.90;99.90
35395;DHT22;21500;45.308;9.488;2023-04-19T23:05:23;14.80;99.90
35395;DHT22;21500;45.308;9.488;2023-04-19T23:08:13;14.80;99.90
35395;DHT22;21500;45.308;9.488;2023-04-19T23:14:09;14.70;99.90
35395;DHT22;21500;45.308;9.488;2023-04-19T23:16:37;14.70;99.90
35395;DHT22;21500;45.308;9.488;2023-04-19T23:19:06;14.60;99.90
35395;DHT22;21500;45.308;9.488;2023-04-19T23:21:33;14.50;99.90
35395;DHT22;21500;45.308;9.488;2023-04-19T23:24:04;14.40;99.90
